Time;durP1;ratioP1;P1;durP2;ratioP2;P2;SDS_P1;SDS_P2;PMS_P1;PMS_P2;Temp;Humidity;BMP_temperature;BMP_pressure;BME280_temperature;BME280_humidity;BME280_pressure;Samples;Min_cycle;Max_cycle;Signal;HPM_P1;HPM_P2
2021/12/30 00:00:12;;;;;;;26.95;14.95;;;20.40;52.80;;;;;;5095884;28;20047;-69
2021/12/30 00:02:42;;;;;;;28.52;15.07;;;20.40;52.60;;;;;;5096604;28;20079;-70
2021/12/30 00:05:09;;;;;;;29.98;15.65;;;20.40;52.60;;;;;;5096469;28;20052;-69
2021/12/30 00:07:36;;;;;;;26.30;14.90;;;20.40;52.60;;;;;;5096777;28;20041;-69
2021/12/30 00:10:04;;;;;;;28.77;15.27;;;20.40;52.50;;;;;;5096452;28;20047;-69
2021/12/30 00:12:30;;;;;;;26.95;15.98;;;20.40;52.50;;;;;;5096697;28;20071;-69
2021/12/30 00:14:57;;;;;;;28.38;15.90;;;20.40;52.40;;;;;;5096502;28;20048;-69
2021/12/30 00:17:22;;;;;;;28.75;16.00;;;20.40;52.40;;;;;;5096494;28;20055;-69
2021/12/30 00:19:49;;;;;;;31.05;15.68;;;20.40;52.40;;;;;;5096403;28;20108;-69
2021/12/30 00:22:15;;;;;;;29.77;16.25;;;20.20;52.30;;;;;;5096418;28;20067;-69
2021/12/30 00:24:41;;;;;;;25.20;14.65;;;20.30;52.50;;;;;;5095994;28;20071;-69
2021/12/30 00:27:07;;;;;;;28.80;16.05;;;20.30;52.40;;;;;;5096213;28;20062;-69
2021/12/30 00:29:33;;;;;;;29.33;16.15;;;20.10;52.30;;;;;;5096606;28;20049;-69
2021/12/30 00:32:00;;;;;;;26.38;14.82;;;20.20;52.30;;;;;;5095646;28;20048;-69
2021/12/30 00:34:26;;;;;;;26.58;14.90;;;20.10;52.30;;;;;;5096195;28;20142;-69
2021/12/30 00:36:52;;;;;;;29.63;15.82;;;20.10;52.20;;;;;;5096246;28;20046;-69
2021/12/30 00:39:18;;;;;;;29.35;15.95;;;20.10;52.20;;;;;;5096239;28;20104;-69
2021/12/30 00:41:44;;;;;;;25.33;15.82;;;20.20;52.20;;;;;;5096385;28;20046;-69
2021/12/30 00:44:11;;;;;;;26.92;15.55;;;20.20;52.20;;;;;;5096143;28;20040;-69
2021/12/30 00:46:37;;;;;;;32.10;15.57;;;20.20;52.10;;;;;;5096310;28;20041;-69
2021/12/30 00:49:04;;;;;;;30.38;15.25;;;20.20;51.90;;;;;;5096169;28;20112;-69
2021/12/30 00:51:30;;;;;;;29.85;16.95;;;20.10;51.90;;;;;;5096249;28;20062;-69
2021/12/30 00:53:56;;;;;;;31.08;14.93;;;20.20;51.90;;;;;;5096285;28;20036;-69
2021/12/30 00:56:23;;;;;;;26.02;14.23;;;20.20;51.90;;;;;;5096172;28;20052;-69
2021/12/30 00:58:49;;;;;;;30.55;15.27;;;20.10;51.80;;;;;;5096141;28;20132;-69
2021/12/30 01:01:15;;;;;;;30.90;15.38;;;20.20;51.70;;;;;;5096243;28;20045;-69
2021/12/30 01:03:41;;;;;;;26.27;14.30;;;20.20;51.60;;;;;;5096083;28;20032;-69
2021/12/30 01:06:07;;;;;;;27.20;15.35;;;20.20;51.60;;;;;;5095933;28;20044;-69
2021/12/30 01:08:33;;;;;;;32.72;16.02;;;20.20;51.60;;;;;;5096239;28;20045;-69
2021/12/30 01:11:04;;;;;;;27.73;15.50;;;20.30;51.70;;;;;;5095957;28;20043;-68
2021/12/30 01:13:32;;;;;;;29.38;15.75;;;20.30;51.50;;;;;;5099551;28;20147;-69
2021/12/30 01:16:03;;;;;;;31.75;15.35;;;20.20;51.40;;;;;;5099569;28;20464;-69
2021/12/30 01:21:08;;;;;;;30.98;15.90;;;20.30;51.40;;;;;;5099546;28;20036;-69
2021/12/30 01:23:36;;;;;;;32.15;15.60;;;20.10;51.30;;;;;;5099329;28;20037;-69
2021/12/30 01:26:03;;;;;;;27.05;15.95;;;20.10;51.30;;;;;;5099332;28;20045;-69
2021/12/30 01:28:29;;;;;;;33.95;15.63;;;20.20;51.30;;;;;;5099399;28;20048;-69
2021/12/30 01:30:56;;;;;;;25.75;14.18;;;20.10;51.40;;;;;;5099584;28;20037;-69
2021/12/30 01:33:23;;;;;;;32.42;15.85;;;20.10;51.40;;;;;;5099037;28;20056;-70
2021/12/30 01:35:49;;;;;;;29.17;15.48;;;20.00;51.20;;;;;;5099247;28;20045;-69
2021/12/30 01:38:16;;;;;;;32.83;16.95;;;20.00;51.20;;;;;;5099018;28;20040;-68
2021/12/30 01:40:46;;;;;;;29.65;15.98;;;20.00;51.20;;;;;;5098997;28;20051;-69
2021/12/30 01:43:13;;;;;;;29.13;15.50;;;19.90;51.20;;;;;;5099180;28;20088;-70
2021/12/30 01:45:41;;;;;;;24.85;14.07;;;19.90;51.20;;;;;;5099233;28;20040;-68
2021/12/30 01:48:07;;;;;;;31.33;15.52;;;19.90;51.20;;;;;;5098719;28;20040;-69
2021/12/30 01:50:34;;;;;;;29.30;15.77;;;19.90;51.20;;;;;;5099001;28;20044;-69
2021/12/30 01:53:00;;;;;;;29.05;15.23;;;19.90;51.20;;;;;;5099036;28;20127;-69
2021/12/30 01:55:27;;;;;;;30.20;16.23;;;19.90;51.20;;;;;;5098754;28;20044;-69
2021/12/30 01:57:53;;;;;;;24.65;14.35;;;20.00;51.10;;;;;;5098857;28;20066;-69
2021/12/30 02:00:24;;;;;;;33.17;15.80;;;20.00;51.10;;;;;;5098789;28;20072;-69
2021/12/30 02:02:51;;;;;;;26.08;14.48;;;20.00;51.00;;;;;;5098642;28;20052;-69
2021/12/30 02:05:17;;;;;;;28.08;14.38;;;20.00;50.90;;;;;;5098799;28;20048;-69
2021/12/30 02:07:44;;;;;;;24.40;13.65;;;20.10;50.90;;;;;;5098812;28;20101;-69
2021/12/30 02:10:12;;;;;;;27.33;13.50;;;20.00;50.80;;;;;;5098555;28;20044;-69
2021/12/30 02:12:39;;;;;;;26.80;14.18;;;20.10;50.80;;;;;;5098662;28;20040;-69
2021/12/30 02:15:10;;;;;;;28.23;14.63;;;20.00;50.60;;;;;;5098501;28;20074;-69
2021/12/30 02:17:37;;;;;;;23.83;13.63;;;20.00;50.60;;;;;;5098489;28;20078;-69
2021/12/30 02:20:10;;;;;;;28.55;13.85;;;20.00;50.50;;;;;;5098521;28;20052;-69
2021/12/30 02:22:36;;;;;;;23.95;12.98;;;20.00;50.50;;;;;;5097991;28;20074;-70
2021/12/30 02:25:04;;;;;;;22.23;13.48;;;20.00;50.30;;;;;;5097918;28;20104;-69
2021/12/30 02:27:31;;;;;;;22.58;14.43;;;20.10;50.30;;;;;;5098230;28;20036;-69
2021/12/30 02:29:57;;;;;;;23.25;14.13;;;20.10;50.30;;;;;;5098162;28;20084;-69
2021/12/30 02:32:25;;;;;;;23.17;14.18;;;19.90;50.30;;;;;;5098321;28;20051;-69
2021/12/30 02:34:53;;;;;;;26.85;16.02;;;19.90;50.30;;;;;;5097739;28;20058;-69
2021/12/30 02:37:20;;;;;;;26.25;14.55;;;20.00;50.30;;;;;;5097973;28;20096;-69
2021/12/30 02:39:53;;;;;;;23.40;15.10;;;20.00;50.40;;;;;;5098203;28;20055;-69
2021/12/30 02:42:24;;;;;;;26.33;14.60;;;19.90;50.30;;;;;;5098178;28;20041;-69
2021/12/30 02:44:52;;;;;;;25.50;14.35;;;19.80;50.30;;;;;;5097878;28;20044;-69
2021/12/30 02:47:19;;;;;;;27.38;15.93;;;19.90;50.40;;;;;;5097727;28;20064;-69
2021/12/30 02:49:45;;;;;;;26.05;14.88;;;19.80;50.30;;;;;;5097909;28;20045;-69
2021/12/30 02:52:11;;;;;;;29.35;17.17;;;19.80;50.30;;;;;;5086941;28;20040;-69
2021/12/30 02:54:40;;;;;;;26.38;14.98;;;19.90;50.50;;;;;;5077460;28;20071;-69
2021/12/30 02:57:06;;;;;;;23.45;16.38;;;19.70;50.50;;;;;;5077358;28;20052;-69
2021/12/30 02:59:32;;;;;;;33.08;16.17;;;19.70;50.60;;;;;;5077643;28;20052;-69
2021/12/30 03:01:58;;;;;;;30.30;16.38;;;19.70;50.60;;;;;;5077598;28;20059;-69
2021/12/30 03:04:26;;;;;;;28.05;17.45;;;19.80;50.50;;;;;;5077358;28;20044;-69
2021/12/30 03:06:53;;;;;;;29.98;16.27;;;19.70;50.50;;;;;;5077471;28;20033;-69
2021/12/30 03:09:19;;;;;;;29.70;16.90;;;19.70;50.40;;;;;;5077489;28;20100;-69
2021/12/30 03:11:45;;;;;;;27.92;16.70;;;19.80;50.30;;;;;;5077290;28;20049;-69
2021/12/30 03:14:11;;;;;;;33.92;17.75;;;19.70;50.30;;;;;;5077339;28;20055;-69
2021/12/30 03:16:37;;;;;;;30.15;16.30;;;19.80;50.20;;;;;;5077504;28;20153;-68
2021/12/30 03:19:05;;;;;;;30.00;17.08;;;19.70;50.20;;;;;;5095700;28;20036;-69
2021/12/30 03:21:32;;;;;;;34.13;16.85;;;19.80;50.00;;;;;;5097330;28;20094;-69
2021/12/30 03:24:02;;;;;;;35.25;18.63;;;19.80;50.00;;;;;;5097058;28;20048;-70
2021/12/30 03:26:28;;;;;;;28.75;15.93;;;19.80;49.90;;;;;;5097201;28;20075;-70
2021/12/30 03:28:55;;;;;;;27.73;16.63;;;19.80;49.90;;;;;;5097009;28;20048;-69
2021/12/30 03:31:21;;;;;;;31.38;18.02;;;19.80;50.00;;;;;;5097206;28;20108;-70
2021/12/30 03:33:50;;;;;;;36.15;18.48;;;19.80;50.20;;;;;;5096763;28;20116;-69
2021/12/30 03:36:19;;;;;;;31.55;17.42;;;19.90;50.40;;;;;;5096938;28;20063;-70
2021/12/30 03:38:48;;;;;;;27.27;16.52;;;19.80;50.40;;;;;;5096670;28;20044;-69
2021/12/30 03:41:19;;;;;;;26.48;15.27;;;19.80;50.60;;;;;;5096897;28;20037;-70
2021/12/30 03:43:46;;;;;;;29.33;15.63;;;19.70;50.70;;;;;;5096996;28;20056;-69
2021/12/30 03:46:12;;;;;;;28.58;15.15;;;19.80;50.80;;;;;;5096765;28;20231;-70
2021/12/30 03:48:43;;;;;;;25.60;15.05;;;19.60;50.90;;;;;;5096924;28;20036;-69
2021/12/30 03:51:14;;;;;;;31.55;15.10;;;19.60;51.10;;;;;;5096277;28;20466;-70
2021/12/30 03:53:42;;;;;;;30.52;16.13;;;19.70;51.30;;;;;;5096853;28;20041;-69
2021/12/30 03:56:10;;;;;;;29.77;15.85;;;19.70;51.40;;;;;;5096849;28;20074;-70
2021/12/30 03:58:38;;;;;;;25.13;15.57;;;19.70;51.60;;;;;;5096608;28;20044;-69
2021/12/30 04:01:05;;;;;;;30.42;16.15;;;19.60;51.70;;;;;;5096520;28;20044;-70
2021/12/30 04:03:32;;;;;;;28.67;15.57;;;19.50;51.80;;;;;;5096441;28;20052;-69
2021/12/30 04:05:58;;;;;;;25.52;15.43;;;19.50;51.90;;;;;;5096759;28;20041;-69
2021/12/30 04:08:25;;;;;;;27.88;15.52;;;19.50;52.00;;;;;;5096371;28;20052;-69
2021/12/30 04:10:51;;;;;;;27.65;16.48;;;19.60;52.30;;;;;;5096623;28;20041;-69
2021/12/30 04:13:18;;;;;;;23.52;14.07;;;19.60;52.30;;;;;;5096538;28;20041;-69
2021/12/30 04:15:44;;;;;;;29.63;16.52;;;19.60;52.20;;;;;;5096617;28;20062;-69
2021/12/30 04:18:10;;;;;;;31.30;16.40;;;19.50;52.20;;;;;;5096536;28;20045;-69
2021/12/30 04:20:36;;;;;;;27.50;15.10;;;19.50;52.20;;;;;;5096629;28;20070;-69
2021/12/30 04:23:03;;;;;;;26.20;15.70;;;19.70;52.20;;;;;;5096322;28;20044;-70
2021/12/30 04:25:29;;;;;;;27.58;16.17;;;19.60;52.00;;;;;;5096689;28;20032;-69
2021/12/30 04:27:55;;;;;;;25.25;15.38;;;19.70;52.20;;;;;;5095860;28;20040;-70
2021/12/30 04:30:20;;;;;;;27.70;14.40;;;19.60;52.00;;;;;;5096193;28;20377;-69
2021/12/30 04:32:47;;;;;;;27.60;15.93;;;19.70;52.00;;;;;;5096366;28;20048;-69
2021/12/30 04:35:13;;;;;;;31.52;16.58;;;19.70;52.00;;;;;;5096494;28;20044;-69
2021/12/30 04:37:40;;;;;;;30.52;17.05;;;19.70;51.90;;;;;;5096370;28;20037;-69
2021/12/30 04:40:07;;;;;;;29.75;16.67;;;19.70;52.00;;;;;;5096420;28;20048;-69
2021/12/30 04:42:33;;;;;;;27.48;15.90;;;19.70;51.90;;;;;;5096218;28;20087;-69
2021/12/30 04:44:59;;;;;;;31.27;15.27;;;19.80;51.70;;;;;;5096207;28;20040;-69
2021/12/30 04:47:25;;;;;;;32.28;17.02;;;19.60;51.60;;;;;;5098627;28;20109;-70
2021/12/30 04:49:55;;;;;;;29.50;16.38;;;19.70;51.70;;;;;;5100054;28;20115;-70
2021/12/30 04:52:21;;;;;;;35.58;18.25;;;19.70;51.70;;;;;;5100223;28;20044;-69
2021/12/30 04:54:49;;;;;;;35.58;17.58;;;19.70;51.90;;;;;;5100099;28;20082;-69
2021/12/30 04:57:15;;;;;;;31.17;16.48;;;19.70;52.10;;;;;;5099945;28;20044;-70
2021/12/30 04:59:41;;;;;;;27.13;16.33;;;19.50;52.10;;;;;;5099817;28;20049;-69
2021/12/30 05:02:08;;;;;;;31.48;16.02;;;19.60;52.30;;;;;;5099540;28;20052;-70
2021/12/30 05:04:34;;;;;;;28.30;15.20;;;19.60;52.50;;;;;;5099154;28;20041;-70
2021/12/30 05:07:00;;;;;;;29.45;16.13;;;19.50;52.60;;;;;;5099317;28;20047;-70
2021/12/30 05:09:26;;;;;;;36.15;17.05;;;19.50;52.80;;;;;;5098925;28;20037;-70
2021/12/30 05:11:53;;;;;;;29.48;15.82;;;19.40;52.80;;;;;;5099055;28;20037;-69
2021/12/30 05:14:20;;;;;;;32.15;17.23;;;19.50;52.90;;;;;;5099082;28;20074;-70
2021/12/30 05:16:46;;;;;;;32.22;16.17;;;19.40;53.00;;;;;;5099021;28;20044;-69
2021/12/30 05:19:12;;;;;;;30.20;15.32;;;19.40;53.10;;;;;;5098510;28;20028;-69
2021/12/30 05:21:38;;;;;;;28.52;15.95;;;19.30;53.40;;;;;;5099019;28;20122;-70
2021/12/30 05:24:05;;;;;;;29.38;15.05;;;19.40;53.20;;;;;;5098658;28;20049;-69
2021/12/30 05:26:31;;;;;;;31.33;15.63;;;19.50;53.30;;;;;;5098751;28;20037;-69
2021/12/30 05:28:59;;;;;;;31.95;15.93;;;19.50;53.10;;;;;;5098640;28;20079;-70
2021/12/30 05:31:26;;;;;;;34.45;16.17;;;19.50;53.10;;;;;;5098719;28;20077;-70
2021/12/30 05:33:52;;;;;;;34.30;16.10;;;19.50;53.00;;;;;;5098627;28;20057;-70
2021/12/30 05:36:19;;;;;;;29.38;17.30;;;19.50;53.00;;;;;;5098854;28;20041;-69
2021/12/30 05:38:45;;;;;;;34.97;17.15;;;19.50;52.90;;;;;;5098450;28;20044;-70
2021/12/30 05:41:12;;;;;;;30.50;15.43;;;19.50;53.00;;;;;;5098722;28;20053;-70
2021/12/30 05:43:38;;;;;;;33.90;17.60;;;19.40;53.10;;;;;;5098494;28;20048;-70
2021/12/30 05:46:04;;;;;;;33.15;16.52;;;19.50;53.20;;;;;;5098432;28;20040;-69
2021/12/30 05:48:30;;;;;;;31.42;17.10;;;19.40;53.20;;;;;;5098355;28;20055;-70
2021/12/30 05:51:01;;;;;;;34.83;17.77;;;19.40;53.30;;;;;;5098405;28;20064;-69
2021/12/30 05:53:28;;;;;;;31.75;16.23;;;19.50;53.50;;;;;;5098285;28;20071;-70
2021/12/30 05:55:54;;;;;;;37.67;19.20;;;19.40;53.60;;;;;;5098384;28;20048;-70
2021/12/30 05:58:21;;;;;;;40.42;18.08;;;19.30;53.70;;;;;;5096657;28;20045;-70
2021/12/30 06:00:47;;;;;;;35.63;18.85;;;19.30;53.60;;;;;;5098015;28;20130;-69
2021/12/30 06:03:18;;;;;;;32.58;17.92;;;19.30;53.80;;;;;;5098046;28;20044;-69
2021/12/30 06:05:48;;;;;;;38.28;18.27;;;19.30;54.10;;;;;;5097404;28;20050;-69
2021/12/30 06:08:15;;;;;;;38.53;18.00;;;19.40;54.30;;;;;;5097553;28;20096;-69
2021/12/30 06:10:43;;;;;;;41.92;19.85;;;19.30;54.10;;;;;;5097673;28;20056;-69
2021/12/30 06:13:09;;;;;;;37.28;19.55;;;19.30;54.10;;;;;;5097564;28;20068;-69
2021/12/30 06:15:36;;;;;;;41.15;19.05;;;19.30;54.20;;;;;;5097489;28;20075;-69
2021/12/30 06:18:02;;;;;;;38.00;19.25;;;19.30;54.40;;;;;;5097583;28;20079;-69
2021/12/30 06:20:29;;;;;;;37.90;19.52;;;19.20;54.30;;;;;;5096958;28;20056;-69
2021/12/30 06:22:55;;;;;;;31.42;16.25;;;19.10;54.30;;;;;;5096820;28;20074;-68
2021/12/30 06:25:22;;;;;;;25.33;13.40;;;19.10;45.40;;;;;;5096855;28;20051;-69
2021/12/30 06:27:48;;;;;;;22.40;11.57;;;19.20;42.80;;;;;;5094431;28;20115;-69
2021/12/30 06:30:14;;;;;;;22.17;10.68;;;19.30;42.10;;;;;;5096806;28;20074;-69
2021/12/30 06:32:40;;;;;;;18.40;11.45;;;19.50;39.30;;;;;;5096868;28;20070;-69
2021/12/30 06:35:08;;;;;;;22.88;12.60;;;19.80;41.60;;;;;;5097296;28;20051;-70
2021/12/30 06:37:39;;;;;;;19.98;11.82;;;19.90;40.40;;;;;;5097504;28;20048;-69
2021/12/30 06:40:07;;;;;;;22.55;12.43;;;20.00;39.70;;;;;;5096652;28;20112;-70
2021/12/30 06:42:33;;;;;;;16.77;8.32;;;20.00;39.70;;;;;;5093866;28;20048;-69
2021/12/30 06:44:59;;;;;;;19.52;9.20;;;20.20;41.10;;;;;;5096692;28;20226;-69
2021/12/30 06:47:25;;;;;;;16.77;9.30;;;20.40;41.30;;;;;;5097371;28;20048;-70
2021/12/30 06:49:52;;;;;;;19.90;9.05;;;20.30;40.40;;;;;;5096626;28;20071;-69
2021/12/30 06:52:18;;;;;;;23.40;10.05;;;20.40;39.70;;;;;;5097261;28;20040;-71
2021/12/30 06:54:44;;;;;;;21.83;10.13;;;20.40;39.90;;;;;;5096658;28;20044;-71
2021/12/30 06:57:11;;;;;;;19.45;10.63;;;20.40;39.60;;;;;;5096729;28;20070;-70
2021/12/30 06:59:37;;;;;;;16.50;8.18;;;20.60;39.60;;;;;;5097027;28;20648;-69
2021/12/30 07:02:05;;;;;;;15.82;8.52;;;20.50;38.80;;;;;;5096981;28;20036;-69
2021/12/30 07:04:32;;;;;;;23.67;12.45;;;20.50;38.30;;;;;;5096709;28;20035;-70
2021/12/30 07:06:58;;;;;;;19.38;10.07;;;20.60;38.80;;;;;;5095692;28;20055;-70
2021/12/30 07:09:25;;;;;;;37.70;20.38;;;20.70;39.40;;;;;;5096329;28;20016;-70
2021/12/30 07:11:51;;;;;;;36.22;20.25;;;20.70;50.20;;;;;;5096602;28;20036;-70
2021/12/30 07:14:19;;;;;;;35.70;20.33;;;20.90;50.50;;;;;;5096687;28;20044;-70
2021/12/30 07:16:46;;;;;;;38.10;19.55;;;20.70;51.00;;;;;;5096600;28;20048;-70
2021/12/30 07:19:12;;;;;;;33.55;18.67;;;20.60;51.80;;;;;;5096426;28;20036;-70
2021/12/30 07:21:39;;;;;;;35.80;19.98;;;20.60;52.60;;;;;;5096675;28;20036;-70
2021/12/30 07:24:09;;;;;;;34.85;18.50;;;20.40;53.10;;;;;;5096310;28;20044;-70
2021/12/30 07:26:37;;;;;;;42.55;20.38;;;20.40;53.70;;;;;;5096466;28;20040;-70
2021/12/30 07:29:04;;;;;;;45.15;20.45;;;20.50;54.10;;;;;;5096412;28;20047;-69
2021/12/30 07:31:31;;;;;;;43.97;21.33;;;20.40;54.10;;;;;;5096356;28;20071;-70
2021/12/30 07:33:58;;;;;;;42.75;20.90;;;20.30;54.40;;;;;;5096229;28;20044;-70
2021/12/30 07:36:24;;;;;;;42.92;20.58;;;20.20;54.50;;;;;;5096256;28;20049;-70
2021/12/30 07:38:50;;;;;;;36.25;18.90;;;20.30;54.70;;;;;;5096293;28;20063;-69
2021/12/30 07:41:17;;;;;;;39.33;18.75;;;20.30;55.00;;;;;;5096257;28;20064;-70
2021/12/30 07:43:44;;;;;;;35.35;19.17;;;20.40;55.10;;;;;;5096288;28;20045;-70
2021/12/30 07:46:11;;;;;;;32.65;14.45;;;20.20;55.00;;;;;;5096095;28;20067;-77
2021/12/30 07:48:38;;;;;;;28.13;11.77;;;20.20;55.40;;;;;;5096241;28;20033;-79
2021/12/30 07:51:04;;;;;;;24.38;11.55;;;20.50;55.00;;;;;;5096064;28;20044;-75
2021/12/30 07:53:31;;;;;;;25.98;12.95;;;20.80;53.00;;;;;;5095616;28;20036;-75
2021/12/30 07:55:57;;;;;;;37.38;16.75;;;21.00;50.80;;;;;;5096170;28;20040;-70
2021/12/30 07:58:23;;;;;;;27.38;14.27;;;21.20;48.90;;;;;;5095997;28;20104;-70
2021/12/30 08:00:54;;;;;;;31.33;14.07;;;21.30;47.70;;;;;;5095706;28;20079;-70
2021/12/30 08:03:21;;;;;;;26.83;13.73;;;21.40;46.80;;;;;;5095915;28;20044;-69
2021/12/30 08:05:49;;;;;;;22.48;12.13;;;21.50;46.50;;;;;;5095887;28;20041;-70
2021/12/30 08:08:15;;;;;;;29.52;14.32;;;21.60;46.30;;;;;;5095890;28;20047;-69
2021/12/30 08:10:41;;;;;;;26.98;12.45;;;21.70;46.20;;;;;;5095263;28;20032;-69
2021/12/30 08:13:07;;;;;;;37.08;17.85;;;21.70;45.90;;;;;;5095778;28;20044;-70
2021/12/30 08:15:33;;;;;;;32.70;17.30;;;21.60;45.10;;;;;;5095831;28;20058;-70
2021/12/30 08:17:59;;;;;;;31.60;18.05;;;21.30;45.60;;;;;;5096025;28;20040;-70
2021/12/30 08:20:27;;;;;;;32.17;16.35;;;21.00;46.30;;;;;;5095560;28;20036;-70
2021/12/30 08:22:53;;;;;;;30.92;16.70;;;20.80;47.50;;;;;;5099036;28;20064;-70
2021/12/30 08:25:21;;;;;;;30.77;16.73;;;20.70;48.40;;;;;;5100000;28;20096;-69
2021/12/30 08:27:48;;;;;;;35.20;17.33;;;20.50;51.20;;;;;;5099913;28;20039;-69
2021/12/30 08:30:17;;;;;;;33.20;16.55;;;20.40;54.00;;;;;;5099767;28;20037;-69
2021/12/30 08:32:44;;;;;;;28.48;14.98;;;20.30;53.20;;;;;;5099062;28;20052;-70
2021/12/30 08:35:12;;;;;;;25.65;14.65;;;20.20;52.60;;;;;;5099429;28;20107;-70
2021/12/30 08:37:39;;;;;;;31.00;14.18;;;20.20;53.00;;;;;;5099709;28;20040;-70
2021/12/30 08:40:08;;;;;;;30.58;13.68;;;20.20;53.00;;;;;;5099771;28;20055;-70
2021/12/30 08:42:36;;;;;;;21.30;11.60;;;20.20;53.20;;;;;;5099520;28;20048;-69
2021/12/30 08:45:04;;;;;;;24.25;14.50;;;20.10;53.40;;;;;;5098855;28;20048;-69
2021/12/30 08:47:33;;;;;;;28.88;13.05;;;20.20;53.50;;;;;;5099734;28;20106;-69
2021/12/30 08:50:00;;;;;;;24.63;12.45;;;20.30;53.70;;;;;;5099228;28;20028;-69
2021/12/30 08:52:28;;;;;;;25.27;11.52;;;20.20;53.80;;;;;;5099253;28;20037;-70
2021/12/30 08:54:56;;;;;;;23.67;12.43;;;20.20;53.70;;;;;;5099390;28;20037;-71
2021/12/30 08:57:22;;;;;;;20.73;12.13;;;20.20;53.80;;;;;;5099239;28;20044;-69
2021/12/30 08:59:49;;;;;;;21.85;12.57;;;20.20;53.90;;;;;;5098549;28;20040;-70
2021/12/30 09:02:15;;;;;;;22.25;12.57;;;20.10;54.00;;;;;;5099159;28;20044;-69
2021/12/30 09:04:46;;;;;;;30.27;13.93;;;20.20;54.00;;;;;;5099261;28;20044;-69
2021/12/30 09:07:18;;;;;;;21.88;11.77;;;20.10;54.00;;;;;;5098161;28;20045;-69
2021/12/30 09:09:44;;;;;;;22.17;12.45;;;20.20;54.20;;;;;;5097803;28;20057;-69
2021/12/30 09:12:11;;;;;;;23.83;13.05;;;20.20;54.20;;;;;;5097662;28;20051;-69
2021/12/30 09:14:38;;;;;;;27.25;13.80;;;20.10;54.20;;;;;;5097438;28;20054;-69
2021/12/30 09:17:05;;;;;;;31.17;14.70;;;20.10;54.20;;;;;;5096419;28;20040;-69
2021/12/30 09:19:31;;;;;;;26.38;13.35;;;20.10;54.30;;;;;;5097306;28;20062;-69
2021/12/30 09:21:57;;;;;;;26.05;12.73;;;20.10;54.40;;;;;;5097666;28;20068;-69
2021/12/30 09:24:24;;;;;;;27.75;14.30;;;20.20;54.60;;;;;;5097879;28;20067;-69
2021/12/30 09:26:50;;;;;;;32.67;13.48;;;20.00;54.70;;;;;;5098496;28;20029;-69
2021/12/30 09:29:16;;;;;;;27.00;12.70;;;19.90;54.80;;;;;;5097763;28;20044;-69
2021/12/30 09:31:45;;;;;;;24.33;12.88;;;20.10;54.90;;;;;;5098190;28;20032;-69
2021/12/30 09:34:12;;;;;;;27.60;13.35;;;20.10;54.80;;;;;;5098329;28;20041;-70
2021/12/30 09:36:38;;;;;;;25.38;11.68;;;20.10;54.70;;;;;;5098805;28;20070;-69
2021/12/30 09:39:07;;;;;;;22.65;12.43;;;20.10;54.80;;;;;;5098522;28;20048;-69
2021/12/30 09:41:37;;;;;;;29.38;13.60;;;20.20;54.80;;;;;;5098593;28;20071;-69
2021/12/30 09:44:08;;;;;;;28.88;11.52;;;20.20;54.70;;;;;;5097609;28;20090;-70
2021/12/30 09:46:35;;;;;;;24.65;12.23;;;20.30;55.00;;;;;;5098643;28;20055;-69
2021/12/30 09:49:08;;;;;;;24.58;11.35;;;20.40;54.70;;;;;;5098580;28;20049;-69
2021/12/30 09:51:35;;;;;;;29.00;13.80;;;20.50;54.70;;;;;;5098370;28;20047;-69
2021/12/30 09:54:04;;;;;;;36.95;14.27;;;20.60;54.20;;;;;;5098463;28;20068;-69
2021/12/30 09:56:31;;;;;;;31.10;14.90;;;20.50;54.10;;;;;;5098282;28;20044;-69
2021/12/30 09:58:57;;;;;;;30.65;15.63;;;20.50;54.40;;;;;;5098068;28;20485;-69
2021/12/30 10:01:23;;;;;;;31.50;16.02;;;20.50;54.50;;;;;;5098164;28;20090;-69
2021/12/30 10:03:55;;;;;;;27.00;13.75;;;20.40;54.50;;;;;;5098171;28;20106;-69
2021/12/30 10:06:21;;;;;;;26.50;13.52;;;20.50;54.70;;;;;;5098240;28;20045;-70
2021/12/30 10:08:58;;;;;;;25.05;13.15;;;20.40;54.70;;;;;;5098082;28;20051;-69
2021/12/30 10:11:26;;;;;;;26.15;13.07;;;20.60;54.80;;;;;;5097970;28;20060;-69
2021/12/30 10:14:01;;;;;;;22.48;10.98;;;20.60;54.50;;;;;;5097902;28;20044;-69
2021/12/30 10:16:27;;;;;;;28.98;13.52;;;20.60;54.20;;;;;;5098117;28;20045;-72
2021/12/30 10:18:57;;;;;;;29.75;12.90;;;20.70;54.00;;;;;;5097950;28;20044;-69
2021/12/30 10:21:30;;;;;;;27.42;13.65;;;20.60;53.70;;;;;;5096083;28;20036;-69
2021/12/30 10:23:59;;;;;;;33.83;14.70;;;20.60;54.10;;;;;;5097406;28;20032;-69
2021/12/30 10:26:25;;;;;;;32.70;15.98;;;20.40;54.30;;;;;;5097377;28;20036;-69
2021/12/30 10:28:55;;;;;;;25.30;13.02;;;20.30;54.70;;;;;;5097310;28;20106;-70
2021/12/30 10:31:24;;;;;;;18.08;9.32;;;20.20;55.30;;;;;;5097459;28;20051;-69
2021/12/30 10:33:51;;;;;;;23.83;11.05;;;20.50;43.20;;;;;;5097144;28;20064;-70
2021/12/30 10:36:20;;;;;;;22.73;10.90;;;20.80;39.10;;;;;;5097562;28;20097;-70
2021/12/30 10:38:46;;;;;;;17.90;9.32;;;21.10;39.20;;;;;;5097560;28;20100;-70
2021/12/30 10:41:12;;;;;;;13.25;8.13;;;21.20;38.60;;;;;;5096305;28;20100;-70
2021/12/30 10:46:20;;;;;;;12.90;7.05;;;21.50;37.90;;;;;;5097019;28;20032;-69
2021/12/30 10:48:52;;;;;;;10.18;7.28;;;21.90;39.70;;;;;;5097283;28;20056;-71
2021/12/30 10:51:49;;;;;;;15.75;8.48;;;22.30;44.80;;;;;;5097115;28;20041;-70
2021/12/30 10:54:19;;;;;;;16.73;9.40;;;22.60;41.10;;;;;;5097023;28;20122;-72
2021/12/30 10:56:50;;;;;;;18.80;10.25;;;22.60;35.60;;;;;;5097207;28;20119;-70
2021/12/30 10:59:34;;;;;;;17.02;10.32;;;22.60;35.70;;;;;;5096977;28;20043;-70
2021/12/30 11:02:12;;;;;;;15.45;9.27;;;22.50;34.70;;;;;;5096828;28;20044;-70
2021/12/30 11:05:00;;;;;;;16.63;9.88;;;22.60;33.80;;;;;;5096455;28;20042;-71
2021/12/30 11:07:50;;;;;;;15.82;8.30;;;22.50;34.00;;;;;;5096920;28;20043;-70
2021/12/30 11:10:32;;;;;;;12.23;7.18;;;22.60;33.10;;;;;;5096139;28;20029;-70
2021/12/30 11:13:12;;;;;;;17.45;10.85;;;22.60;34.50;;;;;;5096918;28;20056;-71
2021/12/30 11:15:41;;;;;;;26.00;14.35;;;22.60;37.90;;;;;;5096688;28;20050;-71
2021/12/30 11:18:10;;;;;;;28.60;15.27;;;22.50;45.60;;;;;;5096085;28;20044;-71
2021/12/30 11:20:42;;;;;;;26.80;13.30;;;22.40;47.30;;;;;;5095995;28;20128;-70
2021/12/30 11:23:10;;;;;;;25.33;13.07;;;22.20;48.40;;;;;;5096365;28;20130;-70
2021/12/30 11:25:40;;;;;;;21.60;12.25;;;22.00;49.00;;;;;;5096541;28;20041;-71
2021/12/30 11:28:06;;;;;;;20.52;11.75;;;22.00;50.20;;;;;;5096662;28;20048;-70
2021/12/30 11:30:33;;;;;;;22.60;11.63;;;21.80;50.40;;;;;;5096356;28;20052;-71
2021/12/30 11:32:59;;;;;;;23.52;11.85;;;21.60;51.20;;;;;;5096260;28;20056;-70
2021/12/30 11:35:30;;;;;;;21.90;12.13;;;21.60;51.70;;;;;;5096304;28;20046;-70
2021/12/30 11:37:57;;;;;;;28.55;14.75;;;21.50;52.40;;;;;;5096358;28;20052;-70
2021/12/30 11:40:25;;;;;;;33.80;16.98;;;21.40;52.60;;;;;;5096507;28;20071;-70
2021/12/30 11:42:58;;;;;;;36.50;17.05;;;21.30;52.90;;;;;;5096235;28;20113;-71
2021/12/30 11:45:31;;;;;;;34.00;17.80;;;21.30;53.50;;;;;;5096264;28;20037;-70
2021/12/30 11:48:03;;;;;;;33.92;18.17;;;21.40;53.60;;;;;;5096325;28;20047;-70
2021/12/30 11:50:37;;;;;;;31.30;15.03;;;21.30;53.70;;;;;;5096285;28;20044;-70
2021/12/30 11:53:24;;;;;;;35.05;16.40;;;21.40;53.70;;;;;;5096357;28;20048;-71
2021/12/30 11:55:58;;;;;;;32.25;16.38;;;21.30;54.60;;;;;;5096302;28;20091;-70
2021/12/30 12:01:04;;;;;;;33.47;16.55;;;21.20;54.70;;;;;;5096010;28;20040;-71
2021/12/30 12:03:53;;;;;;;28.63;14.23;;;21.30;55.00;;;;;;5096078;28;20109;-71
2021/12/30 12:06:28;;;;;;;28.23;14.55;;;21.30;55.20;;;;;;5096065;28;20032;-70
2021/12/30 12:09:05;;;;;;;30.30;15.45;;;21.10;55.30;;;;;;5095367;28;20036;-70
2021/12/30 12:11:40;;;;;;;29.20;15.82;;;21.10;55.50;;;;;;5095848;28;20043;-71
2021/12/30 12:14:21;;;;;;;33.22;16.50;;;21.20;55.40;;;;;;5096059;28;20049;-71
2021/12/30 12:16:56;;;;;;;33.70;16.83;;;21.10;55.30;;;;;;5096069;28;20045;-70
2021/12/30 12:19:40;;;;;;;21.55;12.70;;;21.10;55.50;;;;;;5095677;28;20036;-70
2021/12/30 12:22:25;;;;;;;20.70;11.00;;;21.10;55.80;;;;;;5095849;28;20109;-69
2021/12/30 12:25:19;;;;;;;24.33;11.80;;;21.00;55.80;;;;;;5095242;28;20101;-70
2021/12/30 12:27:51;;;;;;;22.65;11.05;;;21.00;56.10;;;;;;5095660;28;20044;-69
2021/12/30 12:30:31;;;;;;;18.65;10.73;;;21.00;56.60;;;;;;5095980;28;20041;-70
2021/12/30 12:33:00;;;;;;;22.70;12.27;;;21.00;58.00;;;;;;5095382;28;20060;-71
2021/12/30 12:35:29;;;;;;;25.17;13.43;;;20.90;57.40;;;;;;5095765;28;20044;-70
2021/12/30 12:37:59;;;;;;;22.42;11.60;;;21.00;57.10;;;;;;5095771;28;20044;-71
2021/12/30 12:40:54;;;;;;;19.13;10.93;;;21.00;57.10;;;;;;5095552;28;20044;-70